Clarksburg, Tennessee
Current Conditions -  °F | °C
As of 12:55 PM on Friday 24 Oct 2014 (Local Time) from KPVE Reporting Station
Clear Clear  
Wind Chill: 68°   Ceiling: Unl
Heat Index: 68°   Visibility: 10mi
Dew Point: 41°   Wind: 0mph
Humidity: 37%   Direction: NA
Pressure: 30.11"   Gusts: NA
Location:  35.87°N, 88.39°W
Report Text: KPVE 241755Z AUTO 00000KT 10SM CLR 20/05 A3011 RMK
Loading
Personal Weather Stations






























Interactive Weather Map
Tropical Storm Tracking
New forecast layout! Learn more

10-Day Weather Forecast

Advertisements
Track Severe Weather on mobile